createdAt,value
2018-12-05T00:00:53.553Z,17.20
2018-12-05T00:01:53.519Z,17.30
2018-12-05T00:02:53.585Z,17.20
2018-12-05T00:03:53.563Z,20.60
2018-12-05T00:04:53.517Z,19.40
2018-12-05T00:05:53.540Z,17.10
2018-12-05T00:06:53.511Z,18.90
2018-12-05T00:07:53.496Z,18.10
2018-12-05T00:08:53.491Z,17.60
2018-12-05T00:09:53.455Z,19.70
2018-12-05T00:10:53.445Z,19.90
2018-12-05T00:11:53.428Z,16.20
2018-12-05T00:12:53.477Z,19.50
2018-12-05T00:13:53.430Z,17.00
2018-12-05T00:14:53.446Z,15.80
2018-12-05T00:15:53.375Z,16.60
2018-12-05T00:16:53.428Z,17.40
2018-12-05T00:17:53.360Z,17.10
2018-12-05T00:18:53.360Z,17.70
2018-12-05T00:19:53.355Z,19.30
2018-12-05T00:20:53.348Z,17.80
2018-12-05T00:21:53.366Z,21.20
2018-12-05T00:22:53.309Z,16.40
2018-12-05T00:23:53.304Z,17.00
2018-12-05T00:24:53.317Z,16.10
2018-12-05T00:25:53.275Z,18.30
2018-12-05T00:26:53.262Z,16.10
2018-12-05T00:27:53.249Z,18.20
2018-12-05T00:28:53.275Z,15.00
2018-12-05T00:29:53.259Z,15.90
2018-12-05T00:30:53.259Z,19.30
2018-12-05T00:31:53.218Z,17.30
2018-12-05T00:32:53.202Z,19.00
2018-12-05T00:33:53.205Z,15.10
2018-12-05T00:34:53.198Z,17.30
2018-12-05T00:35:53.165Z,15.30
2018-12-05T00:36:53.215Z,17.50
2018-12-05T00:37:53.147Z,17.30
2018-12-05T00:38:53.172Z,16.60
2018-12-05T00:39:53.152Z,15.70
2018-12-05T00:40:53.119Z,16.20
2018-12-05T00:41:53.107Z,15.80
2018-12-05T00:42:53.097Z,16.20
2018-12-05T00:43:53.102Z,15.00
2018-12-05T00:44:53.156Z,17.30
2018-12-05T00:45:53.108Z,17.60
2018-12-05T00:46:53.065Z,13.10
2018-12-05T00:47:53.049Z,15.90
2018-12-05T00:48:53.035Z,15.30
2018-12-05T00:49:53.033Z,17.30
2018-12-05T00:50:53.035Z,16.40
2018-12-05T00:51:52.998Z,16.70
2018-12-05T00:52:53.003Z,17.20
2018-12-05T00:53:53.001Z,17.40
2018-12-05T00:54:53.007Z,18.30
2018-12-05T00:55:53.002Z,18.40
2018-12-05T00:56:52.960Z,18.00
2018-12-05T00:57:52.933Z,17.50
2018-12-05T00:58:52.932Z,15.90
2018-12-05T00:59:52.998Z,18.10
2018-12-05T01:00:52.908Z,17.30
2018-12-05T01:01:52.939Z,15.10
2018-12-05T01:02:52.899Z,15.60
2018-12-05T01:04:01.559Z,18.00
2018-12-05T01:04:52.942Z,16.10
2018-12-05T01:05:52.936Z,16.80
2018-12-05T01:06:52.870Z,18.30
2018-12-05T01:07:52.869Z,20.10
2018-12-05T01:08:52.814Z,17.50
2018-12-05T01:09:52.848Z,17.60
2018-12-05T01:10:52.808Z,15.80
2018-12-05T01:11:52.812Z,16.60
2018-12-05T01:12:52.766Z,17.00
2018-12-05T01:13:52.787Z,17.60
2018-12-05T01:14:52.744Z,16.30
2018-12-05T01:15:52.755Z,16.80
2018-12-05T01:17:01.500Z,19.30
2018-12-05T01:17:52.811Z,14.70
2018-12-05T01:18:52.869Z,15.20
2018-12-05T01:19:52.842Z,15.90
2018-12-05T01:20:52.936Z,17.70
2018-12-05T01:21:52.738Z,16.10
2018-12-05T01:22:52.665Z,16.10
2018-12-05T01:24:00.323Z,15.50
2018-12-05T01:24:52.708Z,17.90
2018-12-05T01:25:52.653Z,18.00
2018-12-05T01:26:52.665Z,18.30
2018-12-05T01:27:52.637Z,16.00
2018-12-05T01:28:52.636Z,16.40
2018-12-05T01:29:52.584Z,17.60
2018-12-05T01:30:52.602Z,16.50
2018-12-05T01:31:52.696Z,19.50
2018-12-05T01:32:52.584Z,17.10
2018-12-05T01:33:52.729Z,16.10
2018-12-05T01:34:52.544Z,19.40
2018-12-05T01:35:52.548Z,22.70
2018-12-05T01:36:52.628Z,19.90
2018-12-05T01:37:52.562Z,19.10
2018-12-05T01:38:52.500Z,16.60
2018-12-05T01:39:52.496Z,16.80
2018-12-05T01:40:52.541Z,20.10
2018-12-05T01:41:52.548Z,20.20
2018-12-05T01:42:52.555Z,20.80
2018-12-05T01:43:52.471Z,20.10
2018-12-05T01:44:52.453Z,18.80
2018-12-05T01:45:52.442Z,20.40
2018-12-05T01:46:52.454Z,19.70
2018-12-05T01:47:52.476Z,20.90
2018-12-05T01:48:52.529Z,19.80
2018-12-05T01:49:52.396Z,18.40
2018-12-05T01:50:52.428Z,19.30
2018-12-05T01:51:52.441Z,20.30
2018-12-05T01:52:52.360Z,19.50
2018-12-05T01:53:52.593Z,20.30
2018-12-05T01:54:52.421Z,19.50
2018-12-05T01:55:52.453Z,20.40
2018-12-05T01:56:52.380Z,22.90
2018-12-05T01:57:52.433Z,21.30
2018-12-05T01:58:52.396Z,22.00
2018-12-05T01:59:52.403Z,24.10
2018-12-05T02:00:52.351Z,21.20
2018-12-05T02:01:52.459Z,20.80
2018-12-05T02:02:52.303Z,22.70
2018-12-05T02:03:52.315Z,25.40
2018-12-05T02:04:52.381Z,24.50
2018-12-05T02:05:52.233Z,25.90
2018-12-05T02:06:52.263Z,25.20
2018-12-05T02:07:52.290Z,22.60
2018-12-05T02:08:52.232Z,23.60
2018-12-05T02:09:52.243Z,23.50
2018-12-05T02:10:52.171Z,25.40
2018-12-05T02:11:52.185Z,23.80
2018-12-05T02:12:52.208Z,24.60
2018-12-05T02:13:52.203Z,23.40
2018-12-05T02:14:52.160Z,26.30
2018-12-05T02:15:52.154Z,24.00
2018-12-05T02:16:52.233Z,26.40
2018-12-05T02:17:52.160Z,26.50
2018-12-05T02:20:02.502Z,22.40
2018-12-05T02:21:12.338Z,23.70
2018-12-05T02:22:02.474Z,24.40
2018-12-05T02:23:02.461Z,27.80
2018-12-05T02:24:02.399Z,26.20
2018-12-05T02:25:02.406Z,30.00
2018-12-05T02:26:02.419Z,29.30
2018-12-05T02:27:02.402Z,25.80
2018-12-05T02:28:02.331Z,25.40
2018-12-05T02:29:02.503Z,29.10
2018-12-05T02:30:02.331Z,27.60
2018-12-05T02:31:02.311Z,26.90
2018-12-05T02:32:02.436Z,40.30
2018-12-05T02:33:02.395Z,38.90
2018-12-05T02:34:02.280Z,26.20
2018-12-05T02:35:02.324Z,30.10
2018-12-05T02:36:02.259Z,31.40
2018-12-05T02:37:02.263Z,38.80
2018-12-05T02:38:02.267Z,26.40
2018-12-05T02:39:02.286Z,38.80
2018-12-05T02:40:02.233Z,49.20
2018-12-05T02:41:02.224Z,58.40
2018-12-05T02:42:02.336Z,54.60
2018-12-05T02:43:02.212Z,45.80
2018-12-05T02:44:02.224Z,43.30
2018-12-05T02:45:02.195Z,44.20
2018-12-05T02:46:02.152Z,42.20
2018-12-05T02:47:02.178Z,76.50
2018-12-05T02:48:02.138Z,75.30
2018-12-05T02:49:02.155Z,36.20
2018-12-05T02:50:02.138Z,56.60
2018-12-05T02:51:02.078Z,50.10
2018-12-05T02:52:02.071Z,46.30
2018-12-05T02:53:02.073Z,53.30
2018-12-05T02:54:02.104Z,40.40
2018-12-05T02:55:02.124Z,36.00
2018-12-05T02:56:02.127Z,44.40
2018-12-05T02:57:02.024Z,56.70
2018-12-05T02:58:02.130Z,46.00
2018-12-05T02:59:02.044Z,63.90
2018-12-05T03:00:02.034Z,72.00
2018-12-05T03:01:01.997Z,51.60
2018-12-05T03:02:02.091Z,44.40
2018-12-05T03:03:02.140Z,44.30
2018-12-05T03:04:01.948Z,49.00
2018-12-05T03:05:01.945Z,54.80
2018-12-05T03:06:01.907Z,42.20
2018-12-05T03:07:01.980Z,40.10
2018-12-05T03:08:02.027Z,41.40
2018-12-05T03:09:02.118Z,38.00
2018-12-05T03:10:01.988Z,50.80
2018-12-05T03:11:01.889Z,36.70
2018-12-05T03:12:01.893Z,33.70
2018-12-05T03:13:01.907Z,30.20
2018-12-05T03:14:01.847Z,31.20
2018-12-05T03:15:01.854Z,31.00
2018-12-05T03:16:01.844Z,34.00
2018-12-05T03:17:01.839Z,34.80
2018-12-05T03:18:01.861Z,44.40
2018-12-05T03:19:01.792Z,32.50
2018-12-05T03:20:01.838Z,42.30
2018-12-05T03:21:01.753Z,43.90
2018-12-05T03:23:12.026Z,33.10
2018-12-05T03:25:21.425Z,25.20
2018-12-05T03:26:21.376Z,34.70
2018-12-05T03:27:21.307Z,46.00
2018-12-05T03:28:21.284Z,39.30
2018-12-05T03:29:21.240Z,41.90
2018-12-05T03:30:21.271Z,41.30
2018-12-05T03:31:21.212Z,45.50
2018-12-05T03:32:21.187Z,54.10
2018-12-05T03:33:21.195Z,45.70
2018-12-05T03:34:21.178Z,34.40
2018-12-05T03:35:21.141Z,60.60
2018-12-05T03:36:21.144Z,48.90
2018-12-05T03:37:21.118Z,66.30
2018-12-05T03:38:21.143Z,42.50
2018-12-05T03:39:21.131Z,53.60
2018-12-05T03:40:21.081Z,54.70
2018-12-05T03:41:21.073Z,38.50
2018-12-05T03:42:21.061Z,46.30
2018-12-05T03:43:21.046Z,42.10
2018-12-05T03:44:21.084Z,35.00
2018-12-05T03:45:21.028Z,40.40
2018-12-05T03:46:21.012Z,38.30
2018-12-05T03:47:21.002Z,31.80
2018-12-05T03:48:20.990Z,28.90
2018-12-05T03:49:21.013Z,26.70
2018-12-05T03:50:21.003Z,28.50
2018-12-05T03:51:20.964Z,28.00
2018-12-05T03:52:20.949Z,30.30
2018-12-05T03:53:20.947Z,22.40
2018-12-05T03:54:20.947Z,23.10
2018-12-05T03:55:20.920Z,24.20
2018-12-05T03:56:20.965Z,25.10
2018-12-05T03:57:20.896Z,23.00
2018-12-05T03:58:20.886Z,22.80
2018-12-05T03:59:20.899Z,24.80
2018-12-05T04:00:20.866Z,24.40
2018-12-05T04:01:20.869Z,23.70
2018-12-05T04:02:20.851Z,26.30
2018-12-05T04:03:20.834Z,23.20
2018-12-05T04:04:20.845Z,24.80
2018-12-05T04:05:20.811Z,25.90
2018-12-05T04:06:20.798Z,24.70
2018-12-05T04:07:20.829Z,24.10
2018-12-05T04:08:20.777Z,25.30
2018-12-05T04:09:20.792Z,26.10
2018-12-05T04:10:20.756Z,26.70
2018-12-05T04:11:20.746Z,25.80
2018-12-05T04:12:20.732Z,24.70
2018-12-05T04:13:20.737Z,26.90
2018-12-05T04:14:20.729Z,22.80
2018-12-05T04:15:20.714Z,23.70
2018-12-05T04:16:20.689Z,27.70
2018-12-05T04:17:20.679Z,22.90
2018-12-05T04:18:20.673Z,23.60
2018-12-05T04:19:20.700Z,23.80
2018-12-05T04:20:20.649Z,23.30
2018-12-05T04:21:20.636Z,26.40
2018-12-05T04:22:28.329Z,21.80
2018-12-05T04:23:20.813Z,22.90
2018-12-05T04:24:28.442Z,23.10
2018-12-05T04:25:20.716Z,22.30
2018-12-05T04:26:20.640Z,21.50
2018-12-05T04:27:20.650Z,20.60
2018-12-05T04:28:20.655Z,21.20
2018-12-05T04:29:20.617Z,23.60
2018-12-05T04:30:20.555Z,20.70
2018-12-05T04:31:20.535Z,19.60
2018-12-05T04:32:20.519Z,23.30
2018-12-05T04:33:20.508Z,21.20
2018-12-05T04:34:20.512Z,23.50
2018-12-05T04:35:20.496Z,21.20
2018-12-05T04:36:20.472Z,23.10
2018-12-05T04:37:20.473Z,20.70
2018-12-05T04:38:20.450Z,21.50
2018-12-05T04:39:20.467Z,24.90
2018-12-05T04:40:20.432Z,25.40
2018-12-05T04:41:20.434Z,27.40
2018-12-05T04:42:20.452Z,24.30
2018-12-05T04:43:20.399Z,24.20
2018-12-05T04:44:20.420Z,22.10
2018-12-05T04:45:20.379Z,21.50
2018-12-05T04:46:20.373Z,23.80
2018-12-05T04:47:20.352Z,21.40
2018-12-05T04:48:20.348Z,20.20
2018-12-05T04:49:20.354Z,20.90
2018-12-05T04:50:20.341Z,19.60
2018-12-05T04:51:20.324Z,22.20
2018-12-05T04:52:20.305Z,18.60
2018-12-05T04:53:20.291Z,18.90
2018-12-05T04:54:20.300Z,20.80
2018-12-05T04:55:20.303Z,20.20
2018-12-05T04:56:20.259Z,21.30
2018-12-05T04:57:20.260Z,19.60
2018-12-05T04:58:20.235Z,21.10
2018-12-05T04:59:20.228Z,22.30
2018-12-05T05:00:20.268Z,22.90
2018-12-05T05:01:20.202Z,19.10
2018-12-05T05:02:20.193Z,19.60
2018-12-05T05:03:20.183Z,19.80
2018-12-05T05:04:20.176Z,22.10
2018-12-05T05:05:20.185Z,21.50
2018-12-05T05:06:20.159Z,23.70
2018-12-05T05:07:20.177Z,20.30
2018-12-05T05:08:20.130Z,19.60
2018-12-05T05:09:20.129Z,21.40
2018-12-05T05:10:20.132Z,23.30
2018-12-05T05:11:20.112Z,21.30
2018-12-05T05:12:20.102Z,19.80
2018-12-05T05:13:20.110Z,20.10
2018-12-05T05:14:20.077Z,18.70
2018-12-05T05:15:20.125Z,21.40
2018-12-05T05:16:20.047Z,20.20
2018-12-05T05:17:20.048Z,21.20
2018-12-05T05:18:20.062Z,22.80
2018-12-05T05:19:20.015Z,21.80
2018-12-05T05:20:20.026Z,19.30
2018-12-05T05:21:19.991Z,21.30
2018-12-05T05:22:20.021Z,21.70
2018-12-05T05:23:19.982Z,18.40
2018-12-05T05:24:27.688Z,19.30
2018-12-05T05:25:21.710Z,20.40
2018-12-05T05:26:28.608Z,19.80
2018-12-05T05:27:27.676Z,19.40
2018-12-05T05:28:20.157Z,19.10
2018-12-05T05:29:28.704Z,18.90
2018-12-05T05:30:20.093Z,18.60
2018-12-05T05:31:20.063Z,22.30
2018-12-05T05:32:19.951Z,18.90
2018-12-05T05:33:20.084Z,20.30
2018-12-05T05:34:19.888Z,21.80
2018-12-05T05:35:19.884Z,18.80
2018-12-05T05:36:19.836Z,20.80
2018-12-05T05:37:19.928Z,18.30
2018-12-05T05:38:19.874Z,19.50
2018-12-05T05:39:19.915Z,19.50
2018-12-05T05:40:19.827Z,17.70
2018-12-05T05:41:19.837Z,18.10
2018-12-05T05:42:19.826Z,19.00
2018-12-05T05:43:19.873Z,18.80
2018-12-05T05:44:19.762Z,17.90
2018-12-05T05:45:19.855Z,20.40
2018-12-05T05:46:19.782Z,20.20
2018-12-05T05:47:19.763Z,19.10
2018-12-05T05:48:19.719Z,17.10
2018-12-05T05:49:19.766Z,16.00
2018-12-05T05:50:20.675Z,17.60
2018-12-05T05:51:19.862Z,19.90
2018-12-05T05:52:19.700Z,17.40
2018-12-05T05:53:19.709Z,16.00
2018-12-05T05:54:19.693Z,18.40
2018-12-05T05:55:19.662Z,18.20
2018-12-05T05:56:19.759Z,15.00
2018-12-05T05:57:19.637Z,17.20
2018-12-05T05:58:19.616Z,16.70
2018-12-05T05:59:19.647Z,16.00
2018-12-05T06:00:19.602Z,16.80
2018-12-05T06:01:19.686Z,16.70
2018-12-05T06:02:20.398Z,16.70
2018-12-05T06:03:19.604Z,18.40
2018-12-05T06:04:19.702Z,16.90
2018-12-05T06:05:19.589Z,19.80
2018-12-05T06:06:19.695Z,19.90
2018-12-05T06:07:19.658Z,18.90
2018-12-05T06:08:19.614Z,17.20
2018-12-05T06:09:19.482Z,18.20
2018-12-05T06:10:19.478Z,16.90
2018-12-05T06:11:19.473Z,15.90
2018-12-05T06:12:19.442Z,18.00
2018-12-05T06:13:19.443Z,20.00
2018-12-05T06:14:19.417Z,19.10
2018-12-05T06:15:19.412Z,18.10
2018-12-05T06:16:19.458Z,18.00
2018-12-05T06:17:19.385Z,19.20
2018-12-05T06:18:19.376Z,16.30
2018-12-05T06:19:19.364Z,17.80
2018-12-05T06:20:19.357Z,17.10
2018-12-05T06:21:19.416Z,15.60
2018-12-05T06:22:19.332Z,19.20
2018-12-05T06:23:19.322Z,17.90
2018-12-05T06:24:19.311Z,17.60
2018-12-05T06:25:28.033Z,17.00
2018-12-05T06:26:28.250Z,18.60
2018-12-05T06:28:30.584Z,15.00
2018-12-05T06:29:30.523Z,17.70
2018-12-05T06:30:30.582Z,15.20
2018-12-05T06:31:39.357Z,17.10
2018-12-05T06:32:30.542Z,21.40
2018-12-05T06:33:30.913Z,20.80
2018-12-05T06:34:30.506Z,22.30
2018-12-05T06:35:30.528Z,19.80
2018-12-05T06:36:30.597Z,23.20
2018-12-05T06:37:30.465Z,23.50
2018-12-05T06:38:30.473Z,22.70
2018-12-05T06:39:30.409Z,17.10
2018-12-05T06:40:30.399Z,19.00
2018-12-05T06:41:30.467Z,20.80
2018-12-05T06:42:30.380Z,20.00
2018-12-05T06:43:30.386Z,17.60
2018-12-05T06:44:30.360Z,18.80
2018-12-05T06:45:30.347Z,17.10
2018-12-05T06:46:30.385Z,15.50
2018-12-05T06:47:30.326Z,18.70
2018-12-05T06:48:30.322Z,18.10
2018-12-05T06:49:30.312Z,16.00
2018-12-05T06:50:30.297Z,19.90
2018-12-05T06:51:30.313Z,16.10
2018-12-05T06:52:30.274Z,20.80
2018-12-05T06:53:30.321Z,16.70
2018-12-05T06:54:37.979Z,17.00
2018-12-05T06:55:30.280Z,16.30
2018-12-05T06:56:30.267Z,17.40
2018-12-05T06:57:30.322Z,17.80
2018-12-05T06:58:30.248Z,17.30
2018-12-05T06:59:30.317Z,16.80
2018-12-05T07:00:30.246Z,17.60
2018-12-05T07:01:30.206Z,17.40
2018-12-05T07:02:30.192Z,14.60
2018-12-05T07:03:30.310Z,16.00
2018-12-05T07:04:30.230Z,18.00
2018-12-05T07:05:30.274Z,16.50
2018-12-05T07:06:30.262Z,16.10
2018-12-05T07:07:30.390Z,15.20
2018-12-05T07:08:30.132Z,18.80
2018-12-05T07:09:30.154Z,16.20
2018-12-05T07:10:30.184Z,18.30
2018-12-05T07:11:30.142Z,17.30
2018-12-05T07:12:30.095Z,15.10
2018-12-05T07:13:30.053Z,17.30
2018-12-05T07:14:30.051Z,18.10
2018-12-05T07:15:30.095Z,19.70
2018-12-05T07:16:30.019Z,17.20
2018-12-05T07:17:30.029Z,17.10
2018-12-05T07:18:29.999Z,20.40
2018-12-05T07:19:29.989Z,17.30
2018-12-05T07:20:30.239Z,19.60
2018-12-05T07:21:30.019Z,19.50
2018-12-05T07:22:30.168Z,19.30
2018-12-05T07:23:30.139Z,19.20
2018-12-05T07:24:30.097Z,16.60
2018-12-05T07:25:30.065Z,13.70
2018-12-05T07:27:41.595Z,17.10
2018-12-05T07:30:32.549Z,16.00
2018-12-05T07:31:32.543Z,18.50
2018-12-05T07:32:32.319Z,18.30
2018-12-05T07:33:32.331Z,18.00
2018-12-05T07:34:32.278Z,14.90
2018-12-05T07:35:32.353Z,21.20
2018-12-05T07:36:32.263Z,18.00
2018-12-05T07:37:32.235Z,18.00
2018-12-05T07:38:32.136Z,18.10
2018-12-05T07:39:39.627Z,17.00
2018-12-05T07:40:32.065Z,17.30
2018-12-05T07:41:32.056Z,18.50
2018-12-05T07:42:32.063Z,15.70
2018-12-05T07:43:32.038Z,15.80
2018-12-05T07:44:32.045Z,16.20
2018-12-05T07:45:32.017Z,14.50
2018-12-05T07:46:39.560Z,13.20
2018-12-05T07:47:31.997Z,14.90
2018-12-05T07:48:32.005Z,18.00
2018-12-05T07:49:39.545Z,15.60
2018-12-05T07:50:31.953Z,16.10
2018-12-05T07:51:32.023Z,14.60
2018-12-05T07:52:31.964Z,14.30
2018-12-05T07:53:31.945Z,15.20
2018-12-05T07:54:31.934Z,16.00
2018-12-05T07:55:31.903Z,15.50
2018-12-05T07:56:42.327Z,14.20
2018-12-05T07:57:31.945Z,13.70
2018-12-05T07:58:31.983Z,15.60
2018-12-05T07:59:31.995Z,12.50
2018-12-05T08:00:31.886Z,13.20
2018-12-05T08:01:31.844Z,15.60
2018-12-05T08:02:31.835Z,16.00
2018-12-05T08:03:31.898Z,14.50
2018-12-05T08:04:31.807Z,14.90
2018-12-05T08:05:31.799Z,11.30
2018-12-05T08:06:31.823Z,13.60
2018-12-05T08:07:31.778Z,10.60
2018-12-05T08:08:41.779Z,15.20
2018-12-05T08:09:31.794Z,13.40
2018-12-05T08:10:31.826Z,15.90
2018-12-05T08:11:31.770Z,17.60
2018-12-05T08:12:31.744Z,12.10
2018-12-05T08:13:31.858Z,16.60
2018-12-05T08:14:31.769Z,14.30
2018-12-05T08:15:31.730Z,13.20
2018-12-05T08:16:31.744Z,12.30
2018-12-05T08:17:31.668Z,12.30
2018-12-05T08:18:31.747Z,14.20
2018-12-05T08:19:31.642Z,14.50
2018-12-05T08:20:39.424Z,11.60
2018-12-05T08:21:39.356Z,15.30
2018-12-05T08:22:39.321Z,13.90
2018-12-05T08:23:31.687Z,13.60
2018-12-05T08:24:39.385Z,14.30
2018-12-05T08:25:40.782Z,13.00
2018-12-05T08:26:39.327Z,16.70
2018-12-05T08:27:39.303Z,14.90
2018-12-05T08:28:40.422Z,14.90
2018-12-05T08:29:39.231Z,17.80
2018-12-05T08:30:39.242Z,17.00
2018-12-05T08:31:39.245Z,15.70
2018-12-05T08:32:40.285Z,16.90
2018-12-05T08:33:41.567Z,14.30
2018-12-05T08:34:31.530Z,13.00
2018-12-05T08:35:31.517Z,13.90
2018-12-05T08:36:31.542Z,13.00
2018-12-05T08:37:31.475Z,16.60
2018-12-05T08:38:31.481Z,12.10
2018-12-05T08:39:31.492Z,13.00
2018-12-05T08:40:31.476Z,14.00
2018-12-05T08:41:31.489Z,14.40
2018-12-05T08:42:31.423Z,15.60
2018-12-05T08:43:31.449Z,18.20
2018-12-05T08:45:42.774Z,11.10
2018-12-05T08:46:42.716Z,14.30
2018-12-05T08:47:42.621Z,13.90
2018-12-05T08:48:50.273Z,15.50
2018-12-05T08:49:50.393Z,15.60
2018-12-05T08:50:51.298Z,15.10
2018-12-05T08:51:50.465Z,12.00
2018-12-05T08:52:51.532Z,15.00
2018-12-05T08:53:51.253Z,14.70
2018-12-05T08:54:53.723Z,16.60
2018-12-05T08:57:00.656Z,16.30
2018-12-05T08:58:09.605Z,14.70
2018-12-05T08:59:08.313Z,16.70
2018-12-05T09:00:09.578Z,17.60
2018-12-05T09:01:08.342Z,14.10
2018-12-05T09:02:00.657Z,15.50
2018-12-05T09:03:09.339Z,16.90
2018-12-05T09:04:00.592Z,17.20
2018-12-05T09:05:00.589Z,15.40
2018-12-05T09:06:00.590Z,14.40
2018-12-05T09:07:00.525Z,14.90
2018-12-05T09:08:00.539Z,17.00
2018-12-05T09:09:08.247Z,13.60
2018-12-05T09:10:00.601Z,15.90
2018-12-05T09:11:00.496Z,17.70
2018-12-05T09:12:00.551Z,14.10
2018-12-05T09:13:00.503Z,16.30
2018-12-05T09:14:08.173Z,16.30
2018-12-05T09:15:00.490Z,15.90
2018-12-05T09:16:00.500Z,16.10
2018-12-05T09:17:00.486Z,16.30
2018-12-05T09:18:00.465Z,13.30
2018-12-05T09:19:08.172Z,17.50
2018-12-05T09:20:10.301Z,13.00
2018-12-05T09:21:08.111Z,17.80
2018-12-05T09:22:08.125Z,16.30
2018-12-05T09:23:00.486Z,15.20
2018-12-05T09:24:08.052Z,16.10
2018-12-05T09:25:11.367Z,12.50
2018-12-05T09:26:00.325Z,13.80
2018-12-05T09:27:00.349Z,18.80
2018-12-05T09:28:09.062Z,15.70
2018-12-05T09:29:08.047Z,15.60
2018-12-05T09:30:08.043Z,13.50
2018-12-05T09:32:10.574Z,17.20
2018-12-05T09:33:10.521Z,14.40
2018-12-05T09:34:10.544Z,17.40
2018-12-05T09:35:10.494Z,20.10
2018-12-05T09:36:10.520Z,18.70
2018-12-05T09:37:10.527Z,19.20
2018-12-05T09:38:10.476Z,16.20
2018-12-05T09:39:18.005Z,15.40
2018-12-05T09:40:10.436Z,14.40
2018-12-05T09:41:10.462Z,16.60
2018-12-05T09:42:10.425Z,18.30
2018-12-05T09:43:10.460Z,16.90
2018-12-05T09:44:10.427Z,17.80
2018-12-05T09:45:10.390Z,15.10
2018-12-05T09:46:10.377Z,16.90
2018-12-05T09:47:15.896Z,17.70
2018-12-05T09:48:11.385Z,16.20
2018-12-05T09:49:10.359Z,17.10
2018-12-05T09:50:10.346Z,15.30
2018-12-05T09:51:10.359Z,16.50
2018-12-05T09:52:10.310Z,15.90
2018-12-05T09:53:10.299Z,15.90
2018-12-05T09:54:10.296Z,16.30
2018-12-05T09:55:10.293Z,17.10
2018-12-05T09:56:10.302Z,18.70
2018-12-05T09:57:10.271Z,16.90
2018-12-05T09:58:10.245Z,16.40
2018-12-05T09:59:10.253Z,15.50
2018-12-05T10:00:10.223Z,17.10
2018-12-05T10:01:10.219Z,17.30
2018-12-05T10:02:10.222Z,20.30
2018-12-05T10:03:10.200Z,17.10
2018-12-05T10:04:10.180Z,17.10
2018-12-05T10:05:10.172Z,18.00
2018-12-05T10:06:10.211Z,20.50
2018-12-05T10:07:10.277Z,14.80
2018-12-05T10:08:10.175Z,17.90
2018-12-05T10:09:10.124Z,16.20
2018-12-05T10:10:10.113Z,15.30
2018-12-05T10:11:10.105Z,19.10
2018-12-05T10:12:10.112Z,18.30
2018-12-05T10:13:10.079Z,17.20
2018-12-05T10:14:10.083Z,18.20
2018-12-05T10:15:10.078Z,18.30
2018-12-05T10:16:10.048Z,18.30
2018-12-05T10:17:10.062Z,17.40
2018-12-05T10:18:10.065Z,16.60
2018-12-05T10:19:10.024Z,21.50
2018-12-05T10:20:10.006Z,16.60
2018-12-05T10:21:10.001Z,17.10
2018-12-05T10:22:09.997Z,16.00
2018-12-05T10:23:09.998Z,18.00
2018-12-05T10:24:09.964Z,16.50
2018-12-05T10:25:09.952Z,17.80
2018-12-05T10:26:09.958Z,20.40
2018-12-05T10:27:09.925Z,17.40
2018-12-05T10:28:09.952Z,17.70
2018-12-05T10:29:09.904Z,16.20
2018-12-05T10:30:09.901Z,18.10
2018-12-05T10:31:09.895Z,19.30
2018-12-05T10:32:09.873Z,16.20
2018-12-05T10:33:09.887Z,20.90
2018-12-05T10:34:09.865Z,17.60
2018-12-05T10:35:09.850Z,14.70
2018-12-05T10:36:09.834Z,17.60
2018-12-05T10:37:09.822Z,18.00
2018-12-05T10:38:09.867Z,17.10
2018-12-05T10:39:09.805Z,16.20
2018-12-05T10:40:09.787Z,18.40
2018-12-05T10:41:09.781Z,16.70
2018-12-05T10:42:09.851Z,21.30
2018-12-05T10:43:09.765Z,19.90
2018-12-05T10:44:09.760Z,17.60
2018-12-05T10:45:09.809Z,18.10
2018-12-05T10:46:09.762Z,16.90
2018-12-05T10:47:09.720Z,17.90
2018-12-05T10:48:09.750Z,18.10
2018-12-05T10:49:09.713Z,18.00
2018-12-05T10:50:09.690Z,18.20
2018-12-05T10:51:09.676Z,18.50
2018-12-05T10:52:09.669Z,19.00
2018-12-05T10:53:09.650Z,19.00
2018-12-05T10:54:09.653Z,19.10
2018-12-05T10:55:09.655Z,17.30
2018-12-05T10:56:09.627Z,17.40
2018-12-05T10:57:09.608Z,18.60
2018-12-05T10:58:09.602Z,15.70
2018-12-05T10:59:09.605Z,19.00
2018-12-05T11:00:09.580Z,18.90
2018-12-05T11:01:09.559Z,17.80
2018-12-05T11:02:09.561Z,18.90
2018-12-05T11:03:09.541Z,22.00
2018-12-05T11:04:09.584Z,19.50
2018-12-05T11:05:09.535Z,17.70
2018-12-05T11:06:09.521Z,14.90
2018-12-05T11:07:09.506Z,15.70
2018-12-05T11:08:09.497Z,17.50
2018-12-05T11:09:18.263Z,17.40
2018-12-05T11:10:09.466Z,18.90
2018-12-05T11:11:09.454Z,16.60
2018-12-05T11:12:09.448Z,17.50
2018-12-05T11:13:09.432Z,18.20
2018-12-05T11:14:18.290Z,19.40
2018-12-05T11:15:09.409Z,21.00
2018-12-05T11:16:09.413Z,17.90
2018-12-05T11:17:09.403Z,19.80
2018-12-05T11:18:09.381Z,20.70
2018-12-05T11:19:18.459Z,15.80
2018-12-05T11:20:16.914Z,16.50
2018-12-05T11:21:09.345Z,19.00
2018-12-05T11:22:09.338Z,20.10
2018-12-05T11:23:09.328Z,17.60
2018-12-05T11:24:09.355Z,20.50
2018-12-05T11:25:09.311Z,19.80
2018-12-05T11:26:09.301Z,16.70
2018-12-05T11:29:32.070Z,17.00
2018-12-05T11:30:32.013Z,17.40
2018-12-05T11:31:32.148Z,19.00
2018-12-05T11:32:32.050Z,20.10
2018-12-05T11:33:31.913Z,19.30
2018-12-05T11:34:31.918Z,17.10
2018-12-05T11:35:31.825Z,18.50
2018-12-05T11:36:31.877Z,20.80
2018-12-05T11:37:31.805Z,16.70
2018-12-05T11:38:31.828Z,16.90
2018-12-05T11:39:31.829Z,18.70
2018-12-05T11:40:31.867Z,17.90
2018-12-05T11:41:32.727Z,15.40
2018-12-05T11:42:31.769Z,19.30
2018-12-05T11:43:31.908Z,15.70
2018-12-05T11:44:31.828Z,16.30
2018-12-05T11:45:31.956Z,17.80
2018-12-05T11:46:42.479Z,18.10
2018-12-05T11:47:31.972Z,18.40
2018-12-05T11:48:32.119Z,18.80
2018-12-05T11:49:31.681Z,18.20
2018-12-05T11:50:31.731Z,16.60
2018-12-05T11:51:31.815Z,19.40
2018-12-05T11:52:31.653Z,17.50
2018-12-05T11:53:42.448Z,16.30
2018-12-05T11:54:31.611Z,19.40
2018-12-05T11:55:40.183Z,20.70
2018-12-05T11:56:31.588Z,18.10
2018-12-05T11:57:31.586Z,18.20
2018-12-05T11:58:31.593Z,18.40
2018-12-05T11:59:31.566Z,21.10
2018-12-05T12:00:31.584Z,18.30
2018-12-05T12:01:31.559Z,16.80
2018-12-05T12:02:31.532Z,19.20
2018-12-05T12:03:31.564Z,17.20
2018-12-05T12:04:31.513Z,19.20
2018-12-05T12:05:31.530Z,16.20
2018-12-05T12:06:31.504Z,15.50
2018-12-05T12:07:31.470Z,16.80
2018-12-05T12:08:31.480Z,16.50
2018-12-05T12:09:31.452Z,15.70
2018-12-05T12:10:31.467Z,16.60
2018-12-05T12:11:31.451Z,16.90
2018-12-05T12:12:31.428Z,17.00
2018-12-05T12:13:31.421Z,17.70
2018-12-05T12:14:31.399Z,18.00
2018-12-05T12:15:31.390Z,18.50
2018-12-05T12:16:31.397Z,19.70
2018-12-05T12:17:31.391Z,17.80
2018-12-05T12:18:31.356Z,15.40
2018-12-05T12:19:31.352Z,16.90
2018-12-05T12:20:31.357Z,17.90
2018-12-05T12:21:31.370Z,18.10
2018-12-05T12:22:31.334Z,18.50
2018-12-05T12:23:31.296Z,16.00
2018-12-05T12:24:34.872Z,19.50
2018-12-05T12:25:31.276Z,16.90
2018-12-05T12:26:33.269Z,16.20
2018-12-05T12:27:31.333Z,17.90
2018-12-05T12:28:31.316Z,15.90
2018-12-05T12:29:31.234Z,18.10
2018-12-05T12:30:31.225Z,22.50
2018-12-05T12:31:31.247Z,16.10
2018-12-05T12:32:31.203Z,16.80
2018-12-05T12:33:31.197Z,18.50
2018-12-05T12:34:31.300Z,18.90
2018-12-05T12:35:31.181Z,19.10
2018-12-05T12:36:31.184Z,33.50
2018-12-05T12:37:31.146Z,19.30
2018-12-05T12:38:31.156Z,18.60
2018-12-05T12:39:31.146Z,18.40
2018-12-05T12:40:31.157Z,15.90
2018-12-05T12:41:31.107Z,21.50
2018-12-05T12:42:31.114Z,17.40
2018-12-05T12:43:31.092Z,19.00
2018-12-05T12:44:31.092Z,33.90
2018-12-05T12:45:31.074Z,17.90
2018-12-05T12:46:31.062Z,16.30
2018-12-05T12:47:31.088Z,18.50
2018-12-05T12:48:31.081Z,17.10
2018-12-05T12:49:31.013Z,15.60
2018-12-05T12:50:31.036Z,16.80
2018-12-05T12:51:31.010Z,17.10
2018-12-05T12:52:31.013Z,21.40
2018-12-05T12:53:30.974Z,17.40
2018-12-05T12:54:30.981Z,16.20
2018-12-05T12:55:30.962Z,20.50
2018-12-05T12:56:30.959Z,15.50
2018-12-05T12:57:30.958Z,17.90
2018-12-05T12:58:30.952Z,18.10
2018-12-05T12:59:30.922Z,17.70
2018-12-05T13:00:30.898Z,16.50
2018-12-05T13:01:30.889Z,17.40
2018-12-05T13:02:31.024Z,15.90
2018-12-05T13:03:30.872Z,16.60
2018-12-05T13:04:30.897Z,17.30
2018-12-05T13:05:30.910Z,17.10
2018-12-05T13:06:30.829Z,20.10